createdAt,value
2018-02-16T00:01:39.336Z,3.20
2018-02-16T00:04:07.644Z,3.00
2018-02-16T00:06:34.247Z,3.10
2018-02-16T00:09:01.033Z,3.20
2018-02-16T00:11:27.530Z,3.30
2018-02-16T00:13:54.078Z,3.30
2018-02-16T00:16:20.615Z,3.30
2018-02-16T00:18:47.122Z,3.20
2018-02-16T00:21:13.559Z,3.10
2018-02-16T00:23:40.202Z,3.00
2018-02-16T00:26:06.732Z,3.00
2018-02-16T00:28:33.294Z,2.90
2018-02-16T00:30:59.898Z,2.90
2018-02-16T00:33:26.404Z,3.00
2018-02-16T00:35:53.561Z,3.10
2018-02-16T00:38:20.157Z,3.10
2018-02-16T00:40:46.747Z,3.20
2018-02-16T00:43:13.304Z,3.30
2018-02-16T00:45:39.788Z,3.30
2018-02-16T00:48:06.304Z,3.30
2018-02-16T00:50:32.778Z,3.30
2018-02-16T00:52:59.261Z,3.30
2018-02-16T00:55:25.811Z,3.40
2018-02-16T00:57:52.463Z,3.40
2018-02-16T01:00:18.998Z,3.40
2018-02-16T01:02:45.527Z,3.40
2018-02-16T01:05:12.031Z,3.50
2018-02-16T01:07:38.569Z,3.50
2018-02-16T01:10:05.076Z,3.50
2018-02-16T01:12:32.661Z,3.60
2018-02-16T01:14:59.167Z,3.60
2018-02-16T01:17:25.844Z,3.70
2018-02-16T01:19:52.953Z,3.60
2018-02-16T01:22:19.474Z,3.70
2018-02-16T01:24:46.078Z,3.70
2018-02-16T01:27:12.560Z,3.80
2018-02-16T01:29:39.048Z,3.70
2018-02-16T01:32:05.553Z,3.70
2018-02-16T01:34:32.030Z,3.70
2018-02-16T01:36:58.609Z,3.70
2018-02-16T01:39:25.200Z,3.70
2018-02-16T01:41:51.728Z,3.70
2018-02-16T01:44:18.171Z,3.70
2018-02-16T01:46:44.778Z,3.60
2018-02-16T01:49:11.350Z,3.60
2018-02-16T01:51:38.638Z,3.60
2018-02-16T01:54:05.939Z,3.60
2018-02-16T01:56:33.770Z,3.60
2018-02-16T01:59:00.392Z,3.70
2018-02-16T02:01:26.862Z,3.70
2018-02-16T02:03:53.435Z,3.80
2018-02-16T02:06:19.905Z,3.80
2018-02-16T02:08:46.472Z,3.90
2018-02-16T02:11:13.045Z,3.90
2018-02-16T02:13:39.580Z,3.90
2018-02-16T02:16:06.925Z,4.00
2018-02-16T02:18:34.283Z,4.00
2018-02-16T02:21:01.487Z,4.00
2018-02-16T02:23:27.914Z,3.90
2018-02-16T02:25:54.411Z,4.00
2018-02-16T02:28:21.002Z,4.00
2018-02-16T02:30:47.539Z,4.00
2018-02-16T02:33:14.192Z,4.00
2018-02-16T02:35:40.649Z,4.00
2018-02-16T02:38:07.962Z,4.00
2018-02-16T02:40:34.496Z,4.00
2018-02-16T02:43:01.110Z,4.00
2018-02-16T02:45:27.651Z,4.00
2018-02-16T02:47:54.167Z,4.00
2018-02-16T02:50:20.798Z,4.00
2018-02-16T02:52:47.322Z,4.00
2018-02-16T02:55:13.933Z,4.00
2018-02-16T02:57:40.491Z,4.00
2018-02-16T03:00:07.937Z,3.90
2018-02-16T03:02:35.179Z,3.90
2018-02-16T03:05:01.711Z,3.90
2018-02-16T03:07:28.118Z,3.90
2018-02-16T03:09:55.081Z,3.90
2018-02-16T03:12:21.621Z,3.80
2018-02-16T03:14:48.125Z,3.80
2018-02-16T03:17:14.611Z,3.90
2018-02-16T03:19:41.835Z,3.90
2018-02-16T03:22:08.309Z,3.80
2018-02-16T03:24:34.837Z,3.90
2018-02-16T03:27:01.351Z,3.90
2018-02-16T03:29:27.812Z,3.80
2018-02-16T03:31:54.310Z,3.80
2018-02-16T03:34:20.785Z,3.80
2018-02-16T03:36:47.260Z,3.80
2018-02-16T03:39:14.072Z,3.80
2018-02-16T03:41:40.578Z,3.80
2018-02-16T03:44:07.875Z,3.80
2018-02-16T03:46:34.601Z,3.80
2018-02-16T03:49:01.138Z,3.80
2018-02-16T03:51:27.672Z,3.80
2018-02-16T03:53:54.385Z,3.80
2018-02-16T03:56:20.933Z,3.80
2018-02-16T03:58:47.366Z,3.80
2018-02-16T04:01:14.033Z,3.80
2018-02-16T04:03:40.545Z,3.80
2018-02-16T04:06:07.053Z,3.90
2018-02-16T04:08:34.383Z,3.80
